createdAt,value
2023-01-28T00:06:46.368Z,63.095
2023-01-28T00:21:48.628Z,64.533
2023-01-28T00:36:50.895Z,66.231
2023-01-28T00:51:53.180Z,65.867
2023-01-28T01:06:55.454Z,70.835
2023-01-28T01:21:57.682Z,68.694
2023-01-28T01:36:59.955Z,71.335
2023-01-28T01:52:02.242Z,70.998
2023-01-28T02:07:04.689Z,69.143
2023-01-28T02:22:06.900Z,69.322
2023-01-28T02:37:09.145Z,67.738
2023-01-28T02:52:11.426Z,69.055
2023-01-28T03:07:13.675Z,69.799
2023-01-28T03:22:15.941Z,69.264
2023-01-28T03:37:18.167Z,71.296
2023-01-28T03:52:20.388Z,71.677
2023-01-28T04:07:22.616Z,73.493
2023-01-28T04:22:24.832Z,73.199
2023-01-28T04:37:27.255Z,71.238
2023-01-28T04:52:29.507Z,73.277
2023-01-28T05:07:31.757Z,73.45
2023-01-28T05:22:34.243Z,72.607
2023-01-28T05:37:36.738Z,73.403
2023-01-28T05:52:39.172Z,70.379
2023-01-28T06:07:41.464Z,68.648
2023-01-28T06:22:44.588Z,69.928
2023-01-28T06:37:47.282Z,70.758
2023-01-28T06:52:49.634Z,72.086
2023-01-28T07:07:51.781Z,70.625
2023-01-28T07:22:53.993Z,68.885
2023-01-28T07:37:56.254Z,68.182
2023-01-28T07:52:58.545Z,68.457
2023-01-28T08:08:00.776Z,68.482
2023-01-28T08:23:03.149Z,68.476
2023-01-28T08:38:05.385Z,69.563
2023-01-28T08:53:07.600Z,69.363
2023-01-28T09:08:09.826Z,70.252
2023-01-28T09:23:12.079Z,70.346
2023-01-28T09:38:14.311Z,70.304
2023-01-28T09:53:16.523Z,69.725
2023-01-28T10:08:18.810Z,68.898
2023-01-28T10:23:21.061Z,70.089
2023-01-28T10:38:23.338Z,70.022
2023-01-28T10:53:27.136Z,70.179
2023-01-28T11:08:29.501Z,71.064
2023-01-28T11:23:31.788Z,69.832
2023-01-28T11:38:34.064Z,69.162
2023-01-28T11:53:36.280Z,69.841
2023-01-28T12:08:38.681Z,69.119
2023-01-28T12:23:40.977Z,70.007
2023-01-28T12:38:43.332Z,69.664
2023-01-28T12:53:45.619Z,69.312
2023-01-28T13:08:48.042Z,68.888
2023-01-28T13:23:50.280Z,69.332
2023-01-28T13:38:52.570Z,70.185
2023-01-28T13:53:54.753Z,68.908
2023-01-28T14:08:56.967Z,69.231
2023-01-28T14:23:59.360Z,69.044
2023-01-28T14:39:01.675Z,69.34
2023-01-28T14:54:03.851Z,68.331
2023-01-28T15:09:06.082Z,69.676
2023-01-28T15:24:08.372Z,68.68
2023-01-28T15:39:10.814Z,68.981
2023-01-28T15:54:13.046Z,68.438
2023-01-28T16:09:15.305Z,69.213
2023-01-28T16:24:17.556Z,65.156
2023-01-28T16:39:19.806Z,64.554
2023-01-28T16:54:22.128Z,63.435
2023-01-28T17:09:24.386Z,63.533
2023-01-28T17:24:26.686Z,63.004
2023-01-28T17:39:29.118Z,62.706
2023-01-28T17:54:31.615Z,65.718
2023-01-28T18:09:33.846Z,69.872
2023-01-28T18:24:36.191Z,71.622
2023-01-28T18:39:38.438Z,69.105
2023-01-28T18:54:40.920Z,66
2023-01-28T19:09:43.121Z,69.749
2023-01-28T19:24:45.430Z,68.152
2023-01-28T19:39:47.984Z,69.234
2023-01-28T19:54:50.245Z,67.439
2023-01-28T20:09:52.600Z,64.947
2023-01-28T20:24:54.837Z,62.825
2023-01-28T20:39:57.126Z,62.614
2023-01-28T20:54:59.430Z,61.152
2023-01-28T21:10:02.522Z,60.638
2023-01-28T21:25:05.624Z,59.143
2023-01-28T21:40:08.278Z,58.393
2023-01-28T21:55:10.485Z,57.043
2023-01-28T22:10:12.824Z,56.34
2023-01-28T22:25:15.123Z,56.848
2023-01-28T22:40:17.706Z,51.783
2023-01-28T22:55:20.251Z,51.187
2023-01-28T23:10:22.482Z,48.738
2023-01-28T23:25:24.748Z,48.974
2023-01-28T23:40:27.136Z,49.329
2023-01-28T23:55:29.460Z,49.595
